Hubbardston, Michigan
Current Conditions -  °F | °C
As of 3:33 PM on Friday 28 Nov 2014 (Local Time) from KY70 Reporting Station
Overcast Overcast  
Wind Chill: 14°   Ceiling: 7500
Heat Index: 26°   Visibility: 10mi
Dew Point: 19°   Wind: 13mph
Humidity: 78%   Direction: 180°S
Pressure: 30.11"   Gusts: NA
Location:  43.09°N, 84.84°W
Report Text: KY70 282033Z AUTO 18011KT 10SM OVC075 M04/M07 A3011 RMK AO2 T10361070
Loading
Personal Weather Stations






























Interactive Weather Map New forecast layout! Learn more

10-Day Weather Forecast

Advertisements
Track Severe Weather on mobile